sensor_id;sensor_type;location;lat;lon;timestamp;P1;durP1;ratioP1;P2;durP2;ratioP2
62673;SDS011;62269;47.594;17.638;2023-09-18T00:00:21;23.85;;;21.20;;
62673;SDS011;62269;47.594;17.638;2023-09-18T00:01:18;24.50;;;21.83;;
62673;SDS011;62269;47.594;17.638;2023-09-18T00:02:16;23.55;;;20.70;;
62673;SDS011;62269;47.594;17.638;2023-09-18T00:03:13;23.52;;;20.95;;
62673;SDS011;62269;47.594;17.638;2023-09-18T00:04:10;26.90;;;22.62;;
62673;SDS011;62269;47.594;17.638;2023-09-18T00:05:07;24.48;;;21.10;;
62673;SDS011;62269;47.594;17.638;2023-09-18T00:06:05;24.15;;;20.55;;
62673;SDS011;62269;47.594;17.638;2023-09-18T00:07:02;25.23;;;21.95;;
62673;SDS011;62269;47.594;17.638;2023-09-18T00:07:59;29.90;;;22.77;;
62673;SDS011;62269;47.594;17.638;2023-09-18T00:08:59;23.70;;;21.20;;
62673;SDS011;62269;47.594;17.638;2023-09-18T00:09:56;25.20;;;22.15;;
62673;SDS011;62269;47.594;17.638;2023-09-18T00:10:53;24.15;;;21.45;;
62673;SDS011;62269;47.594;17.638;2023-09-18T00:11:51;25.48;;;22.60;;
62673;SDS011;62269;47.594;17.638;2023-09-18T00:12:49;24.87;;;22.27;;
62673;SDS011;62269;47.594;17.638;2023-09-18T00:13:46;23.98;;;20.88;;
62673;SDS011;62269;47.594;17.638;2023-09-18T00:14:43;24.27;;;21.45;;
62673;SDS011;62269;47.594;17.638;2023-09-18T00:15:40;25.80;;;21.90;;
62673;SDS011;62269;47.594;17.638;2023-09-18T00:16:37;27.77;;;22.87;;
62673;SDS011;62269;47.594;17.638;2023-09-18T00:17:53;28.42;;;23.95;;
62673;SDS011;62269;47.594;17.638;2023-09-18T00:18:50;27.65;;;23.10;;
62673;SDS011;62269;47.594;17.638;2023-09-18T00:19:47;28.80;;;23.67;;
62673;SDS011;62269;47.594;17.638;2023-09-18T00:20:44;26.00;;;22.35;;
62673;SDS011;62269;47.594;17.638;2023-09-18T00:21:42;25.05;;;21.90;;
62673;SDS011;62269;47.594;17.638;2023-09-18T00:22:39;28.58;;;23.23;;
62673;SDS011;62269;47.594;17.638;2023-09-18T00:23:36;25.33;;;22.73;;
62673;SDS011;62269;47.594;17.638;2023-09-18T00:24:34;25.65;;;22.95;;
62673;SDS011;62269;47.594;17.638;2023-09-18T00:25:31;26.67;;;23.98;;
62673;SDS011;62269;47.594;17.638;2023-09-18T00:26:28;26.35;;;23.05;;
62673;SDS011;62269;47.594;17.638;2023-09-18T00:27:25;29.67;;;24.15;;
62673;SDS011;62269;47.594;17.638;2023-09-18T00:28:23;26.90;;;23.10;;
62673;SDS011;62269;47.594;17.638;2023-09-18T00:29:20;27.08;;;23.35;;
62673;SDS011;62269;47.594;17.638;2023-09-18T00:30:17;27.87;;;24.05;;
62673;SDS011;62269;47.594;17.638;2023-09-18T00:31:14;26.65;;;23.65;;
62673;SDS011;62269;47.594;17.638;2023-09-18T00:32:11;27.52;;;23.42;;
62673;SDS011;62269;47.594;17.638;2023-09-18T00:33:08;25.80;;;23.00;;
62673;SDS011;62269;47.594;17.638;2023-09-18T00:34:06;27.77;;;24.55;;
62673;SDS011;62269;47.594;17.638;2023-09-18T00:35:03;28.05;;;23.42;;
62673;SDS011;62269;47.594;17.638;2023-09-18T00:36:00;26.87;;;23.98;;
62673;SDS011;62269;47.594;17.638;2023-09-18T00:36:57;26.73;;;23.70;;
62673;SDS011;62269;47.594;17.638;2023-09-18T00:37:55;27.65;;;24.73;;
62673;SDS011;62269;47.594;17.638;2023-09-18T00:38:52;28.83;;;23.67;;
62673;SDS011;62269;47.594;17.638;2023-09-18T00:39:50;31.90;;;25.35;;
62673;SDS011;62269;47.594;17.638;2023-09-18T00:40:47;28.38;;;24.00;;
62673;SDS011;62269;47.594;17.638;2023-09-18T00:41:44;28.58;;;24.87;;
62673;SDS011;62269;47.594;17.638;2023-09-18T00:42:45;27.40;;;23.85;;
62673;SDS011;62269;47.594;17.638;2023-09-18T00:43:43;29.55;;;24.83;;
62673;SDS011;62269;47.594;17.638;2023-09-18T00:44:40;27.05;;;24.20;;
62673;SDS011;62269;47.594;17.638;2023-09-18T00:45:41;28.27;;;24.63;;
62673;SDS011;62269;47.594;17.638;2023-09-18T00:46:39;31.58;;;24.58;;
62673;SDS011;62269;47.594;17.638;2023-09-18T00:47:36;25.35;;;22.75;;
62673;SDS011;62269;47.594;17.638;2023-09-18T00:48:33;27.45;;;24.27;;
62673;SDS011;62269;47.594;17.638;2023-09-18T00:49:31;27.02;;;23.87;;
62673;SDS011;62269;47.594;17.638;2023-09-18T00:50:28;29.95;;;24.37;;
62673;SDS011;62269;47.594;17.638;2023-09-18T00:51:25;29.45;;;24.30;;
62673;SDS011;62269;47.594;17.638;2023-09-18T00:52:22;26.92;;;24.02;;
62673;SDS011;62269;47.594;17.638;2023-09-18T00:53:21;27.75;;;23.85;;
62673;SDS011;62269;47.594;17.638;2023-09-18T00:54:19;27.30;;;22.48;;
62673;SDS011;62269;47.594;17.638;2023-09-18T00:55:16;26.90;;;23.90;;
62673;SDS011;62269;47.594;17.638;2023-09-18T00:56:14;29.52;;;23.50;;
62673;SDS011;62269;47.594;17.638;2023-09-18T00:57:11;28.02;;;24.12;;
62673;SDS011;62269;47.594;17.638;2023-09-18T00:58:08;26.95;;;24.05;;
62673;SDS011;62269;47.594;17.638;2023-09-18T00:59:05;30.95;;;23.92;;
62673;SDS011;62269;47.594;17.638;2023-09-18T01:00:03;28.70;;;23.45;;
62673;SDS011;62269;47.594;17.638;2023-09-18T01:01:02;26.52;;;23.60;;
62673;SDS011;62269;47.594;17.638;2023-09-18T01:02:00;24.80;;;22.25;;
62673;SDS011;62269;47.594;17.638;2023-09-18T01:03:01;24.92;;;22.08;;
62673;SDS011;62269;47.594;17.638;2023-09-18T01:03:58;26.85;;;23.25;;
62673;SDS011;62269;47.594;17.638;2023-09-18T01:04:56;29.65;;;24.58;;
62673;SDS011;62269;47.594;17.638;2023-09-18T01:05:54;27.77;;;23.90;;
62673;SDS011;62269;47.594;17.638;2023-09-18T01:06:52;26.80;;;23.77;;
62673;SDS011;62269;47.594;17.638;2023-09-18T01:07:49;25.90;;;23.17;;
62673;SDS011;62269;47.594;17.638;2023-09-18T01:08:47;27.27;;;24.00;;
62673;SDS011;62269;47.594;17.638;2023-09-18T01:09:47;27.92;;;23.75;;
62673;SDS011;62269;47.594;17.638;2023-09-18T01:10:56;29.87;;;24.55;;
62673;SDS011;62269;47.594;17.638;2023-09-18T01:12:01;27.10;;;23.95;;
62673;SDS011;62269;47.594;17.638;2023-09-18T01:13:08;27.40;;;23.27;;
62673;SDS011;62269;47.594;17.638;2023-09-18T01:14:20;26.23;;;23.52;;
62673;SDS011;62269;47.594;17.638;2023-09-18T01:15:31;26.70;;;23.80;;
62673;SDS011;62269;47.594;17.638;2023-09-18T01:16:40;28.48;;;24.60;;
62673;SDS011;62269;47.594;17.638;2023-09-18T01:17:42;28.10;;;24.15;;
62673;SDS011;62269;47.594;17.638;2023-09-18T01:18:48;27.50;;;24.40;;
62673;SDS011;62269;47.594;17.638;2023-09-18T01:19:47;27.42;;;24.37;;
62673;SDS011;62269;47.594;17.638;2023-09-18T01:20:44;27.27;;;24.50;;
62673;SDS011;62269;47.594;17.638;2023-09-18T01:21:41;28.27;;;25.27;;
62673;SDS011;62269;47.594;17.638;2023-09-18T01:22:42;27.23;;;24.33;;
62673;SDS011;62269;47.594;17.638;2023-09-18T01:23:40;29.83;;;24.70;;
62673;SDS011;62269;47.594;17.638;2023-09-18T01:24:37;29.37;;;25.48;;
62673;SDS011;62269;47.594;17.638;2023-09-18T01:25:35;28.20;;;24.98;;
62673;SDS011;62269;47.594;17.638;2023-09-18T01:26:32;28.87;;;25.77;;
62673;SDS011;62269;47.594;17.638;2023-09-18T01:27:29;30.83;;;26.50;;
62673;SDS011;62269;47.594;17.638;2023-09-18T01:28:26;28.87;;;25.37;;
62673;SDS011;62269;47.594;17.638;2023-09-18T01:29:22;29.00;;;25.08;;
62673;SDS011;62269;47.594;17.638;2023-09-18T01:30:20;28.42;;;25.12;;
62673;SDS011;62269;47.594;17.638;2023-09-18T01:31:17;28.95;;;25.85;;
62673;SDS011;62269;47.594;17.638;2023-09-18T01:32:14;29.25;;;25.23;;
62673;SDS011;62269;47.594;17.638;2023-09-18T01:33:12;29.83;;;26.55;;
62673;SDS011;62269;47.594;17.638;2023-09-18T01:34:10;29.10;;;24.87;;
62673;SDS011;62269;47.594;17.638;2023-09-18T01:35:07;32.22;;;26.83;;
62673;SDS011;62269;47.594;17.638;2023-09-18T01:36:07;29.83;;;26.20;;
62673;SDS011;62269;47.594;17.638;2023-09-18T01:37:04;31.50;;;27.30;;
62673;SDS011;62269;47.594;17.638;2023-09-18T01:38:02;30.08;;;26.55;;
62673;SDS011;62269;47.594;17.638;2023-09-18T01:38:59;29.92;;;25.52;;
62673;SDS011;62269;47.594;17.638;2023-09-18T01:39:57;28.00;;;24.92;;
62673;SDS011;62269;47.594;17.638;2023-09-18T01:40:56;32.00;;;26.83;;
62673;SDS011;62269;47.594;17.638;2023-09-18T01:41:54;29.35;;;26.12;;
62673;SDS011;62269;47.594;17.638;2023-09-18T01:42:51;33.55;;;26.73;;
62673;SDS011;62269;47.594;17.638;2023-09-18T01:43:48;28.73;;;25.50;;
62673;SDS011;62269;47.594;17.638;2023-09-18T01:44:46;29.83;;;26.60;;
62673;SDS011;62269;47.594;17.638;2023-09-18T01:45:44;33.17;;;27.77;;
62673;SDS011;62269;47.594;17.638;2023-09-18T01:46:41;31.33;;;27.90;;
62673;SDS011;62269;47.594;17.638;2023-09-18T01:47:38;29.95;;;25.90;;
62673;SDS011;62269;47.594;17.638;2023-09-18T01:48:36;33.55;;;28.02;;
62673;SDS011;62269;47.594;17.638;2023-09-18T01:49:35;30.42;;;27.15;;
62673;SDS011;62269;47.594;17.638;2023-09-18T01:50:33;32.38;;;26.65;;
62673;SDS011;62269;47.594;17.638;2023-09-18T01:51:30;30.67;;;26.48;;
62673;SDS011;62269;47.594;17.638;2023-09-18T01:52:27;34.85;;;28.83;;
62673;SDS011;62269;47.594;17.638;2023-09-18T01:53:24;29.85;;;26.52;;
62673;SDS011;62269;47.594;17.638;2023-09-18T01:54:23;30.75;;;27.45;;
62673;SDS011;62269;47.594;17.638;2023-09-18T01:55:21;31.50;;;26.92;;
62673;SDS011;62269;47.594;17.638;2023-09-18T01:56:19;29.85;;;26.73;;
62673;SDS011;62269;47.594;17.638;2023-09-18T01:57:16;29.65;;;26.58;;
62673;SDS011;62269;47.594;17.638;2023-09-18T01:58:13;29.42;;;25.48;;
62673;SDS011;62269;47.594;17.638;2023-09-18T01:59:12;29.85;;;25.85;;
62673;SDS011;62269;47.594;17.638;2023-09-18T02:00:10;28.80;;;25.70;;
62673;SDS011;62269;47.594;17.638;2023-09-18T02:01:09;29.23;;;25.98;;
62673;SDS011;62269;47.594;17.638;2023-09-18T02:02:07;29.08;;;25.58;;
62673;SDS011;62269;47.594;17.638;2023-09-18T02:03:11;30.67;;;26.25;;
62673;SDS011;62269;47.594;17.638;2023-09-18T02:04:29;29.75;;;26.02;;
62673;SDS011;62269;47.594;17.638;2023-09-18T02:05:46;28.42;;;24.95;;
62673;SDS011;62269;47.594;17.638;2023-09-18T02:06:43;27.58;;;24.67;;
62673;SDS011;62269;47.594;17.638;2023-09-18T02:07:41;28.27;;;25.25;;
62673;SDS011;62269;47.594;17.638;2023-09-18T02:08:38;28.12;;;25.23;;
62673;SDS011;62269;47.594;17.638;2023-09-18T02:09:35;29.90;;;25.40;;
62673;SDS011;62269;47.594;17.638;2023-09-18T02:10:32;29.27;;;24.73;;
62673;SDS011;62269;47.594;17.638;2023-09-18T02:11:29;29.05;;;25.95;;
62673;SDS011;62269;47.594;17.638;2023-09-18T02:12:26;28.62;;;25.60;;
62673;SDS011;62269;47.594;17.638;2023-09-18T02:13:23;29.20;;;25.90;;
62673;SDS011;62269;47.594;17.638;2023-09-18T02:14:21;28.83;;;25.30;;
62673;SDS011;62269;47.594;17.638;2023-09-18T02:15:18;27.87;;;24.90;;
62673;SDS011;62269;47.594;17.638;2023-09-18T02:16:15;29.58;;;25.45;;
62673;SDS011;62269;47.594;17.638;2023-09-18T02:17:12;29.15;;;25.92;;
62673;SDS011;62269;47.594;17.638;2023-09-18T02:18:09;30.12;;;26.83;;
62673;SDS011;62269;47.594;17.638;2023-09-18T02:19:06;28.58;;;25.48;;
62673;SDS011;62269;47.594;17.638;2023-09-18T02:20:07;29.25;;;25.23;;
62673;SDS011;62269;47.594;17.638;2023-09-18T02:21:08;29.67;;;25.30;;
62673;SDS011;62269;47.594;17.638;2023-09-18T02:22:05;32.33;;;25.60;;
62673;SDS011;62269;47.594;17.638;2023-09-18T02:23:03;28.25;;;25.25;;
62673;SDS011;62269;47.594;17.638;2023-09-18T02:24:00;28.77;;;25.02;;
62673;SDS011;62269;47.594;17.638;2023-09-18T02:24:58;28.30;;;25.15;;
62673;SDS011;62269;47.594;17.638;2023-09-18T02:25:56;27.95;;;25.08;;
62673;SDS011;62269;47.594;17.638;2023-09-18T02:26:53;27.90;;;25.00;;
62673;SDS011;62269;47.594;17.638;2023-09-18T02:27:50;29.08;;;25.95;;
62673;SDS011;62269;47.594;17.638;2023-09-18T02:28:48;28.08;;;24.40;;
62673;SDS011;62269;47.594;17.638;2023-09-18T02:29:45;30.33;;;24.37;;
62673;SDS011;62269;47.594;17.638;2023-09-18T02:30:42;26.87;;;24.02;;
62673;SDS011;62269;47.594;17.638;2023-09-18T02:31:40;26.10;;;23.42;;
62673;SDS011;62269;47.594;17.638;2023-09-18T02:32:37;27.58;;;24.52;;
62673;SDS011;62269;47.594;17.638;2023-09-18T02:33:35;27.80;;;24.80;;
62673;SDS011;62269;47.594;17.638;2023-09-18T02:34:33;32.25;;;25.35;;
62673;SDS011;62269;47.594;17.638;2023-09-18T02:35:30;28.60;;;24.70;;
62673;SDS011;62269;47.594;17.638;2023-09-18T02:36:27;28.73;;;24.35;;
62673;SDS011;62269;47.594;17.638;2023-09-18T02:37:24;27.70;;;24.73;;
62673;SDS011;62269;47.594;17.638;2023-09-18T02:38:21;28.38;;;25.27;;
62673;SDS011;62269;47.594;17.638;2023-09-18T02:39:18;27.98;;;25.00;;
62673;SDS011;62269;47.594;17.638;2023-09-18T02:40:15;26.42;;;23.58;;
62673;SDS011;62269;47.594;17.638;2023-09-18T02:41:12;27.50;;;24.48;;
62673;SDS011;62269;47.594;17.638;2023-09-18T02:42:09;28.00;;;24.80;;
62673;SDS011;62269;47.594;17.638;2023-09-18T02:43:06;28.70;;;24.73;;
62673;SDS011;62269;47.594;17.638;2023-09-18T02:44:03;27.40;;;24.50;;
62673;SDS011;62269;47.594;17.638;2023-09-18T02:45:01;31.05;;;24.90;;
62673;SDS011;62269;47.594;17.638;2023-09-18T02:45:58;26.42;;;23.40;;
62673;SDS011;62269;47.594;17.638;2023-09-18T02:46:57;28.15;;;24.95;;
62673;SDS011;62269;47.594;17.638;2023-09-18T02:47:55;27.55;;;24.73;;
62673;SDS011;62269;47.594;17.638;2023-09-18T02:48:52;29.00;;;25.90;;
62673;SDS011;62269;47.594;17.638;2023-09-18T02:49:50;26.62;;;23.85;;
62673;SDS011;62269;47.594;17.638;2023-09-18T02:50:47;28.45;;;25.40;;
62673;SDS011;62269;47.594;17.638;2023-09-18T02:51:44;31.85;;;25.48;;
62673;SDS011;62269;47.594;17.638;2023-09-18T02:52:40;26.42;;;23.60;;
62673;SDS011;62269;47.594;17.638;2023-09-18T02:53:38;28.12;;;24.83;;
62673;SDS011;62269;47.594;17.638;2023-09-18T02:54:35;27.50;;;24.60;;
62673;SDS011;62269;47.594;17.638;2023-09-18T02:55:32;29.23;;;24.70;;
62673;SDS011;62269;47.594;17.638;2023-09-18T02:56:29;27.33;;;23.95;;
62673;SDS011;62269;47.594;17.638;2023-09-18T02:57:26;26.98;;;24.12;;
62673;SDS011;62269;47.594;17.638;2023-09-18T02:58:23;29.12;;;25.10;;
62673;SDS011;62269;47.594;17.638;2023-09-18T02:59:25;27.85;;;24.98;;
62673;SDS011;62269;47.594;17.638;2023-09-18T03:00:23;27.23;;;24.33;;
62673;SDS011;62269;47.594;17.638;2023-09-18T03:01:38;28.12;;;23.23;;
62673;SDS011;62269;47.594;17.638;2023-09-18T03:02:36;26.45;;;23.67;;
62673;SDS011;62269;47.594;17.638;2023-09-18T03:03:33;25.60;;;22.83;;
62673;SDS011;62269;47.594;17.638;2023-09-18T03:04:31;28.20;;;24.98;;
62673;SDS011;62269;47.594;17.638;2023-09-18T03:05:31;28.00;;;23.95;;
62673;SDS011;62269;47.594;17.638;2023-09-18T03:06:28;24.92;;;22.13;;
62673;SDS011;62269;47.594;17.638;2023-09-18T03:07:25;27.67;;;24.63;;
62673;SDS011;62269;47.594;17.638;2023-09-18T03:08:25;28.67;;;23.70;;
62673;SDS011;62269;47.594;17.638;2023-09-18T03:09:22;27.17;;;24.08;;
62673;SDS011;62269;47.594;17.638;2023-09-18T03:10:19;27.80;;;24.08;;
62673;SDS011;62269;47.594;17.638;2023-09-18T03:11:17;26.17;;;23.52;;
62673;SDS011;62269;47.594;17.638;2023-09-18T03:12:14;24.48;;;21.67;;
62673;SDS011;62269;47.594;17.638;2023-09-18T03:13:11;25.58;;;22.58;;
62673;SDS011;62269;47.594;17.638;2023-09-18T03:14:10;26.73;;;23.87;;
62673;SDS011;62269;47.594;17.638;2023-09-18T03:15:07;26.83;;;23.90;;
62673;SDS011;62269;47.594;17.638;2023-09-18T03:16:05;24.55;;;21.98;;
62673;SDS011;62269;47.594;17.638;2023-09-18T03:17:03;26.23;;;23.38;;
62673;SDS011;62269;47.594;17.638;2023-09-18T03:18:01;26.75;;;23.77;;
62673;SDS011;62269;47.594;17.638;2023-09-18T03:18:58;24.58;;;22.00;;
62673;SDS011;62269;47.594;17.638;2023-09-18T03:19:55;25.33;;;22.50;;
62673;SDS011;62269;47.594;17.638;2023-09-18T03:20:52;29.00;;;24.90;;
62673;SDS011;62269;47.594;17.638;2023-09-18T03:21:50;25.27;;;22.40;;
62673;SDS011;62269;47.594;17.638;2023-09-18T03:22:47;25.65;;;22.80;;
62673;SDS011;62269;47.594;17.638;2023-09-18T03:23:44;25.70;;;23.05;;
62673;SDS011;62269;47.594;17.638;2023-09-18T03:24:41;26.77;;;22.75;;
62673;SDS011;62269;47.594;17.638;2023-09-18T03:25:38;25.70;;;22.90;;
62673;SDS011;62269;47.594;17.638;2023-09-18T03:26:47;24.70;;;22.13;;
62673;SDS011;62269;47.594;17.638;2023-09-18T03:27:45;25.80;;;22.85;;
62673;SDS011;62269;47.594;17.638;2023-09-18T03:28:42;25.92;;;22.65;;
62673;SDS011;62269;47.594;17.638;2023-09-18T03:29:39;25.85;;;22.58;;
62673;SDS011;62269;47.594;17.638;2023-09-18T03:30:36;26.27;;;23.15;;
62673;SDS011;62269;47.594;17.638;2023-09-18T03:31:33;25.15;;;22.42;;
62673;SDS011;62269;47.594;17.638;2023-09-18T03:32:30;25.98;;;23.17;;
62673;SDS011;62269;47.594;17.638;2023-09-18T03:33:27;25.55;;;22.85;;
62673;SDS011;62269;47.594;17.638;2023-09-18T03:34:25;25.58;;;22.87;;
62673;SDS011;62269;47.594;17.638;2023-09-18T03:35:23;26.27;;;23.50;;
62673;SDS011;62269;47.594;17.638;2023-09-18T03:36:21;25.85;;;23.15;;
62673;SDS011;62269;47.594;17.638;2023-09-18T03:37:21;25.12;;;22.52;;
62673;SDS011;62269;47.594;17.638;2023-09-18T03:38:18;25.50;;;22.58;;
62673;SDS011;62269;47.594;17.638;2023-09-18T03:39:15;25.83;;;22.42;;
62673;SDS011;62269;47.594;17.638;2023-09-18T03:40:12;25.05;;;22.35;;
62673;SDS011;62269;47.594;17.638;2023-09-18T03:41:10;24.87;;;22.27;;
62673;SDS011;62269;47.594;17.638;2023-09-18T03:42:07;23.92;;;21.35;;
62673;SDS011;62269;47.594;17.638;2023-09-18T03:43:04;25.00;;;22.02;;
62673;SDS011;62269;47.594;17.638;2023-09-18T03:44:01;24.92;;;22.33;;
62673;SDS011;62269;47.594;17.638;2023-09-18T03:44:59;25.92;;;23.15;;
62673;SDS011;62269;47.594;17.638;2023-09-18T03:46:05;24.65;;;21.95;;
62673;SDS011;62269;47.594;17.638;2023-09-18T03:47:02;24.95;;;22.20;;
62673;SDS011;62269;47.594;17.638;2023-09-18T03:48:00;25.37;;;22.67;;
62673;SDS011;62269;47.594;17.638;2023-09-18T03:48:57;25.10;;;22.13;;
62673;SDS011;62269;47.594;17.638;2023-09-18T03:49:54;26.92;;;22.67;;
62673;SDS011;62269;47.594;17.638;2023-09-18T03:50:52;25.58;;;22.37;;
62673;SDS011;62269;47.594;17.638;2023-09-18T03:51:49;23.73;;;21.20;;
62673;SDS011;62269;47.594;17.638;2023-09-18T03:52:46;25.00;;;22.40;;
62673;SDS011;62269;47.594;17.638;2023-09-18T03:53:43;23.42;;;20.98;;
62673;SDS011;62269;47.594;17.638;2023-09-18T03:54:40;25.20;;;22.55;;
62673;SDS011;62269;47.594;17.638;2023-09-18T03:55:38;25.98;;;23.15;;
62673;SDS011;62269;47.594;17.638;2023-09-18T03:56:35;25.95;;;22.92;;
62673;SDS011;62269;47.594;17.638;2023-09-18T03:57:32;26.15;;;22.65;;
62673;SDS011;62269;47.594;17.638;2023-09-18T03:58:31;27.23;;;20.98;;
62673;SDS011;62269;47.594;17.638;2023-09-18T03:59:32;31.40;;;22.75;;
62673;SDS011;62269;47.594;17.638;2023-09-18T04:00:29;24.67;;;22.00;;
62673;SDS011;62269;47.594;17.638;2023-09-18T04:01:26;27.05;;;21.67;;
62673;SDS011;62269;47.594;17.638;2023-09-18T04:02:25;26.20;;;22.20;;
62673;SDS011;62269;47.594;17.638;2023-09-18T04:03:23;26.62;;;23.67;;
62673;SDS011;62269;47.594;17.638;2023-09-18T04:04:20;28.27;;;22.98;;
62673;SDS011;62269;47.594;17.638;2023-09-18T04:05:17;25.88;;;21.62;;
62673;SDS011;62269;47.594;17.638;2023-09-18T04:06:15;28.75;;;22.83;;
62673;SDS011;62269;47.594;17.638;2023-09-18T04:07:12;25.67;;;22.90;;
62673;SDS011;62269;47.594;17.638;2023-09-18T04:08:12;24.23;;;21.50;;
62673;SDS011;62269;47.594;17.638;2023-09-18T04:09:10;27.52;;;22.48;;
62673;SDS011;62269;47.594;17.638;2023-09-18T04:10:07;26.25;;;23.42;;
62673;SDS011;62269;47.594;17.638;2023-09-18T04:11:04;24.52;;;22.00;;
62673;SDS011;62269;47.594;17.638;2023-09-18T04:12:01;25.23;;;22.62;;
62673;SDS011;62269;47.594;17.638;2023-09-18T04:12:59;25.08;;;22.48;;
62673;SDS011;62269;47.594;17.638;2023-09-18T04:13:56;23.95;;;21.33;;
62673;SDS011;62269;47.594;17.638;2023-09-18T04:14:53;24.87;;;21.77;;
62673;SDS011;62269;47.594;17.638;2023-09-18T04:15:50;23.85;;;21.33;;
62673;SDS011;62269;47.594;17.638;2023-09-18T04:16:53;24.30;;;21.67;;
62673;SDS011;62269;47.594;17.638;2023-09-18T04:17:50;24.75;;;21.50;;
62673;SDS011;62269;47.594;17.638;2023-09-18T04:18:47;25.85;;;21.12;;
62673;SDS011;62269;47.594;17.638;2023-09-18T04:19:45;24.98;;;22.33;;
62673;SDS011;62269;47.594;17.638;2023-09-18T04:20:42;24.58;;;21.30;;
62673;SDS011;62269;47.594;17.638;2023-09-18T04:21:39;25.23;;;22.70;;
62673;SDS011;62269;47.594;17.638;2023-09-18T04:22:36;24.60;;;21.73;;
62673;SDS011;62269;47.594;17.638;2023-09-18T04:23:39;25.20;;;22.50;;
62673;SDS011;62269;47.594;17.638;2023-09-18T04:24:36;26.87;;;22.60;;
62673;SDS011;62269;47.594;17.638;2023-09-18T04:25:33;26.58;;;22.77;;
62673;SDS011;62269;47.594;17.638;2023-09-18T04:26:30;26.45;;;22.58;;
62673;SDS011;62269;47.594;17.638;2023-09-18T04:27:27;24.98;;;22.42;;
62673;SDS011;62269;47.594;17.638;2023-09-18T04:28:24;25.08;;;22.48;;
62673;SDS011;62269;47.594;17.638;2023-09-18T04:29:21;24.55;;;21.60;;
62673;SDS011;62269;47.594;17.638;2023-09-18T04:30:18;27.92;;;22.92;;
62673;SDS011;62269;47.594;17.638;2023-09-18T04:31:16;25.98;;;22.83;;
62673;SDS011;62269;47.594;17.638;2023-09-18T04:32:13;24.52;;;21.92;;
62673;SDS011;62269;47.594;17.638;2023-09-18T04:33:10;24.33;;;21.83;;
62673;SDS011;62269;47.594;17.638;2023-09-18T04:34:09;25.02;;;22.33;;
62673;SDS011;62269;47.594;17.638;2023-09-18T04:35:07;26.12;;;22.37;;
62673;SDS011;62269;47.594;17.638;2023-09-18T04:36:05;25.42;;;22.20;;
62673;SDS011;62269;47.594;17.638;2023-09-18T04:37:02;25.15;;;21.83;;
62673;SDS011;62269;47.594;17.638;2023-09-18T04:38:00;24.08;;;21.25;;
62673;SDS011;62269;47.594;17.638;2023-09-18T04:38:57;23.87;;;21.37;;
62673;SDS011;62269;47.594;17.638;2023-09-18T04:39:54;23.62;;;21.23;;
62673;SDS011;62269;47.594;17.638;2023-09-18T04:40:57;24.60;;;21.92;;
62673;SDS011;62269;47.594;17.638;2023-09-18T04:41:57;24.20;;;21.10;;
62673;SDS011;62269;47.594;17.638;2023-09-18T04:42:54;24.40;;;21.35;;
62673;SDS011;62269;47.594;17.638;2023-09-18T04:43:51;24.73;;;21.15;;
62673;SDS011;62269;47.594;17.638;2023-09-18T04:44:48;23.48;;;20.98;;
62673;SDS011;62269;47.594;17.638;2023-09-18T04:45:45;26.77;;;21.67;;
62673;SDS011;62269;47.594;17.638;2023-09-18T04:46:42;23.60;;;21.05;;
62673;SDS011;62269;47.594;17.638;2023-09-18T04:47:39;25.42;;;21.20;;
62673;SDS011;62269;47.594;17.638;2023-09-18T04:48:36;22.60;;;20.30;;
62673;SDS011;62269;47.594;17.638;2023-09-18T04:49:33;22.95;;;20.55;;
62673;SDS011;62269;47.594;17.638;2023-09-18T04:50:31;24.25;;;20.98;;
62673;SDS011;62269;47.594;17.638;2023-09-18T04:51:31;28.27;;;20.70;;
62673;SDS011;62269;47.594;17.638;2023-09-18T04:52:29;22.70;;;20.35;;
62673;SDS011;62269;47.594;17.638;2023-09-18T04:53:29;22.92;;;20.52;;
62673;SDS011;62269;47.594;17.638;2023-09-18T04:54:27;23.58;;;21.17;;
62673;SDS011;62269;47.594;17.638;2023-09-18T04:55:24;23.95;;;21.42;;
62673;SDS011;62269;47.594;17.638;2023-09-18T04:56:21;25.15;;;22.65;;
62673;SDS011;62269;47.594;17.638;2023-09-18T04:57:18;23.48;;;21.08;;
62673;SDS011;62269;47.594;17.638;2023-09-18T04:58:15;24.12;;;21.52;;
62673;SDS011;62269;47.594;17.638;2023-09-18T04:59:13;23.55;;;21.17;;
62673;SDS011;62269;47.594;17.638;2023-09-18T05:00:11;23.27;;;20.77;;
62673;SDS011;62269;47.594;17.638;2023-09-18T05:01:13;24.45;;;22.00;;
62673;SDS011;62269;47.594;17.638;2023-09-18T05:02:10;24.27;;;21.40;;
62673;SDS011;62269;47.594;17.638;2023-09-18T05:03:08;23.95;;;21.52;;
62673;SDS011;62269;47.594;17.638;2023-09-18T05:04:06;23.00;;;20.65;;
62673;SDS011;62269;47.594;17.638;2023-09-18T05:05:03;24.08;;;20.75;;
62673;SDS011;62269;47.594;17.638;2023-09-18T05:06:01;22.05;;;19.87;;
62673;SDS011;62269;47.594;17.638;2023-09-18T05:07:00;22.27;;;20.02;;
62673;SDS011;62269;47.594;17.638;2023-09-18T05:08:01;23.15;;;20.27;;
62673;SDS011;62269;47.594;17.638;2023-09-18T05:09:04;22.27;;;19.98;;
62673;SDS011;62269;47.594;17.638;2023-09-18T05:10:02;22.95;;;20.50;;
62673;SDS011;62269;47.594;17.638;2023-09-18T05:11:01;21.67;;;19.37;;
62673;SDS011;62269;47.594;17.638;2023-09-18T05:11:58;22.13;;;19.92;;
62673;SDS011;62269;47.594;17.638;2023-09-18T05:12:56;23.10;;;20.60;;
62673;SDS011;62269;47.594;17.638;2023-09-18T05:13:55;22.93;;;20.53;;
62673;SDS011;62269;47.594;17.638;2023-09-18T05:14:52;23.33;;;20.15;;
62673;SDS011;62269;47.594;17.638;2023-09-18T05:15:49;22.20;;;19.90;;
62673;SDS011;62269;47.594;17.638;2023-09-18T05:16:46;21.90;;;19.55;;
62673;SDS011;62269;47.594;17.638;2023-09-18T05:17:44;22.02;;;19.80;;
62673;SDS011;62269;47.594;17.638;2023-09-18T05:18:49;21.55;;;19.35;;
62673;SDS011;62269;47.594;17.638;2023-09-18T05:19:46;20.58;;;18.48;;
62673;SDS011;62269;47.594;17.638;2023-09-18T05:20:43;22.02;;;19.60;;
62673;SDS011;62269;47.594;17.638;2023-09-18T05:21:40;21.55;;;19.45;;
62673;SDS011;62269;47.594;17.638;2023-09-18T05:22:38;21.73;;;18.48;;
62673;SDS011;62269;47.594;17.638;2023-09-18T05:23:36;20.90;;;18.80;;
62673;SDS011;62269;47.594;17.638;2023-09-18T05:24:33;20.42;;;18.37;;
62673;SDS011;62269;47.594;17.638;2023-09-18T05:25:30;20.17;;;17.98;;
62673;SDS011;62269;47.594;17.638;2023-09-18T05:26:29;20.33;;;18.25;;
62673;SDS011;62269;47.594;17.638;2023-09-18T05:27:27;19.55;;;17.60;;
62673;SDS011;62269;47.594;17.638;2023-09-18T05:28:24;19.90;;;17.80;;
62673;SDS011;62269;47.594;17.638;2023-09-18T05:29:21;19.25;;;17.27;;
62673;SDS011;62269;47.594;17.638;2023-09-18T05:30:18;21.55;;;18.40;;
62673;SDS011;62269;47.594;17.638;2023-09-18T05:31:19;21.10;;;18.80;;
62673;SDS011;62269;47.594;17.638;2023-09-18T05:32:17;20.67;;;18.48;;
62673;SDS011;62269;47.594;17.638;2023-09-18T05:33:15;20.10;;;18.02;;
62673;SDS011;62269;47.594;17.638;2023-09-18T05:34:12;19.80;;;16.92;;
62673;SDS011;62269;47.594;17.638;2023-09-18T05:35:09;20.60;;;18.40;;